sensor_id;sensor_type;location;lat;lon;timestamp;temperature;humidity
47779;DHT22;33538;48.432;11.350;2023-06-22T00:01:07;23.70;78.30
47779;DHT22;33538;48.432;11.350;2023-06-22T00:03:34;23.70;78.30
47779;DHT22;33538;48.432;11.350;2023-06-22T00:06:01;23.70;78.90
47779;DHT22;33538;48.432;11.350;2023-06-22T00:08:28;23.70;78.50
47779;DHT22;33538;48.432;11.350;2023-06-22T00:10:54;23.60;78.80
47779;DHT22;33538;48.432;11.350;2023-06-22T00:13:22;23.60;78.40
47779;DHT22;33538;48.432;11.350;2023-06-22T00:15:49;23.60;78.80
47779;DHT22;33538;48.432;11.350;2023-06-22T00:18:16;23.60;79.10
47779;DHT22;33538;48.432;11.350;2023-06-22T00:20:43;23.60;78.80
47779;DHT22;33538;48.432;11.350;2023-06-22T00:23:09;23.60;78.80
47779;DHT22;33538;48.432;11.350;2023-06-22T00:25:37;23.60;78.80
47779;DHT22;33538;48.432;11.350;2023-06-22T00:28:04;23.60;79.00
47779;DHT22;33538;48.432;11.350;2023-06-22T00:30:33;23.50;79.70
47779;DHT22;33538;48.432;11.350;2023-06-22T00:33:00;23.50;79.40
47779;DHT22;33538;48.432;11.350;2023-06-22T00:35:27;23.60;79.10
47779;DHT22;33538;48.432;11.350;2023-06-22T00:37:54;23.60;78.90
47779;DHT22;33538;48.432;11.350;2023-06-22T00:40:21;23.60;78.80
47779;DHT22;33538;48.432;11.350;2023-06-22T00:42:48;23.60;78.70
47779;DHT22;33538;48.432;11.350;2023-06-22T00:45:15;23.60;78.80
47779;DHT22;33538;48.432;11.350;2023-06-22T00:47:43;23.60;79.00
47779;DHT22;33538;48.432;11.350;2023-06-22T00:50:18;23.60;78.80
47779;DHT22;33538;48.432;11.350;2023-06-22T00:52:47;23.50;78.70
47779;DHT22;33538;48.432;11.350;2023-06-22T00:55:14;23.50;78.90
47779;DHT22;33538;48.432;11.350;2023-06-22T00:57:41;23.50;79.20
47779;DHT22;33538;48.432;11.350;2023-06-22T01:00:09;23.60;79.20
47779;DHT22;33538;48.432;11.350;2023-06-22T01:02:36;23.50;79.20
47779;DHT22;33538;48.432;11.350;2023-06-22T01:05:05;23.50;79.10
47779;DHT22;33538;48.432;11.350;2023-06-22T01:07:38;23.50;79.60
47779;DHT22;33538;48.432;11.350;2023-06-22T01:10:08;23.40;79.40
47779;DHT22;33538;48.432;11.350;2023-06-22T01:12:40;23.50;79.00
47779;DHT22;33538;48.432;11.350;2023-06-22T01:15:11;23.40;79.60
47779;DHT22;33538;48.432;11.350;2023-06-22T01:17:41;23.20;80.00
47779;DHT22;33538;48.432;11.350;2023-06-22T01:20:13;23.30;79.80
47779;DHT22;33538;48.432;11.350;2023-06-22T01:22:49;23.30;80.30
47779;DHT22;33538;48.432;11.350;2023-06-22T01:25:20;23.20;80.00
47779;DHT22;33538;48.432;11.350;2023-06-22T01:27:56;23.10;80.80
47779;DHT22;33538;48.432;11.350;2023-06-22T01:30:27;23.10;81.40
47779;DHT22;33538;48.432;11.350;2023-06-22T01:32:58;23.20;81.20
47779;DHT22;33538;48.432;11.350;2023-06-22T01:35:25;23.30;81.00
47779;DHT22;33538;48.432;11.350;2023-06-22T01:37:53;23.20;81.00
47779;DHT22;33538;48.432;11.350;2023-06-22T01:40:20;23.00;81.50
47779;DHT22;33538;48.432;11.350;2023-06-22T01:42:48;23.10;81.30
47779;DHT22;33538;48.432;11.350;2023-06-22T01:45:17;23.00;81.80
47779;DHT22;33538;48.432;11.350;2023-06-22T01:47:47;23.00;81.70
47779;DHT22;33538;48.432;11.350;2023-06-22T01:50:14;23.10;81.50
47779;DHT22;33538;48.432;11.350;2023-06-22T01:52:41;23.00;81.10
47779;DHT22;33538;48.432;11.350;2023-06-22T01:55:08;23.10;80.80
47779;DHT22;33538;48.432;11.350;2023-06-22T01:57:35;23.20;80.40
47779;DHT22;33538;48.432;11.350;2023-06-22T02:00:04;23.10;80.40
47779;DHT22;33538;48.432;11.350;2023-06-22T02:02:36;23.00;80.40
47779;DHT22;33538;48.432;11.350;2023-06-22T02:05:08;23.00;80.00
47779;DHT22;33538;48.432;11.350;2023-06-22T02:07:41;23.10;79.90
47779;DHT22;33538;48.432;11.350;2023-06-22T02:10:12;23.00;80.20
47779;DHT22;33538;48.432;11.350;2023-06-22T02:12:42;23.00;80.10
47779;DHT22;33538;48.432;11.350;2023-06-22T02:15:10;22.80;80.60
47779;DHT22;33538;48.432;11.350;2023-06-22T02:17:38;22.80;80.90
47779;DHT22;33538;48.432;11.350;2023-06-22T02:20:07;22.80;81.00
47779;DHT22;33538;48.432;11.350;2023-06-22T02:22:38;22.90;80.40
47779;DHT22;33538;48.432;11.350;2023-06-22T02:25:05;22.80;80.50
47779;DHT22;33538;48.432;11.350;2023-06-22T02:27:32;22.70;81.70
47779;DHT22;33538;48.432;11.350;2023-06-22T02:29:59;22.70;81.70
47779;DHT22;33538;48.432;11.350;2023-06-22T02:32:26;22.60;82.00
47779;DHT22;33538;48.432;11.350;2023-06-22T02:34:52;22.60;82.60
47779;DHT22;33538;48.432;11.350;2023-06-22T02:37:21;22.60;82.10
47779;DHT22;33538;48.432;11.350;2023-06-22T02:39:47;22.60;82.50
47779;DHT22;33538;48.432;11.350;2023-06-22T02:42:14;22.60;82.70
47779;DHT22;33538;48.432;11.350;2023-06-22T02:44:41;22.60;82.50
47779;DHT22;33538;48.432;11.350;2023-06-22T02:47:08;22.70;81.70
47779;DHT22;33538;48.432;11.350;2023-06-22T02:49:35;22.60;82.30
47779;DHT22;33538;48.432;11.350;2023-06-22T02:52:02;22.60;82.60
47779;DHT22;33538;48.432;11.350;2023-06-22T02:54:30;22.50;83.50
47779;DHT22;33538;48.432;11.350;2023-06-22T02:56:57;22.50;83.60
47779;DHT22;33538;48.432;11.350;2023-06-22T02:59:24;22.70;82.60
47779;DHT22;33538;48.432;11.350;2023-06-22T03:01:51;22.60;82.80
47779;DHT22;33538;48.432;11.350;2023-06-22T03:04:18;22.70;82.30
47779;DHT22;33538;48.432;11.350;2023-06-22T03:06:44;22.70;81.90
47779;DHT22;33538;48.432;11.350;2023-06-22T03:09:11;22.80;81.90
47779;DHT22;33538;48.432;11.350;2023-06-22T03:11:39;22.80;81.50
47779;DHT22;33538;48.432;11.350;2023-06-22T03:14:06;22.60;82.60
47779;DHT22;33538;48.432;11.350;2023-06-22T03:16:33;22.60;82.30
47779;DHT22;33538;48.432;11.350;2023-06-22T03:19:00;22.70;81.80
47779;DHT22;33538;48.432;11.350;2023-06-22T03:21:28;22.50;82.90
47779;DHT22;33538;48.432;11.350;2023-06-22T03:23:55;22.40;84.00
47779;DHT22;33538;48.432;11.350;2023-06-22T03:26:22;22.50;83.80
47779;DHT22;33538;48.432;11.350;2023-06-22T03:28:50;22.50;83.10
47779;DHT22;33538;48.432;11.350;2023-06-22T03:31:17;22.50;83.20
47779;DHT22;33538;48.432;11.350;2023-06-22T03:33:44;22.50;83.20
47779;DHT22;33538;48.432;11.350;2023-06-22T03:36:10;22.40;83.90
47779;DHT22;33538;48.432;11.350;2023-06-22T03:38:37;22.30;84.60
47779;DHT22;33538;48.432;11.350;2023-06-22T03:41:07;22.40;83.50
47779;DHT22;33538;48.432;11.350;2023-06-22T03:43:34;22.50;83.00
47779;DHT22;33538;48.432;11.350;2023-06-22T03:46:02;22.60;82.80
47779;DHT22;33538;48.432;11.350;2023-06-22T03:48:29;22.60;82.30
47779;DHT22;33538;48.432;11.350;2023-06-22T03:50:56;22.60;82.60
47779;DHT22;33538;48.432;11.350;2023-06-22T03:53:23;22.50;83.00
47779;DHT22;33538;48.432;11.350;2023-06-22T03:55:50;22.50;83.40
47779;DHT22;33538;48.432;11.350;2023-06-22T03:58:17;22.60;82.60
47779;DHT22;33538;48.432;11.350;2023-06-22T04:00:45;22.60;82.50
47779;DHT22;33538;48.432;11.350;2023-06-22T04:03:13;22.60;82.90
47779;DHT22;33538;48.432;11.350;2023-06-22T04:05:40;22.60;83.00
47779;DHT22;33538;48.432;11.350;2023-06-22T04:08:08;22.50;83.30
47779;DHT22;33538;48.432;11.350;2023-06-22T04:10:35;22.50;83.70
47779;DHT22;33538;48.432;11.350;2023-06-22T04:13:01;22.60;83.30
47779;DHT22;33538;48.432;11.350;2023-06-22T04:15:28;22.70;83.20
47779;DHT22;33538;48.432;11.350;2023-06-22T04:17:56;22.70;83.00
47779;DHT22;33538;48.432;11.350;2023-06-22T04:20:24;22.70;83.10
47779;DHT22;33538;48.432;11.350;2023-06-22T04:22:53;22.70;83.10
47779;DHT22;33538;48.432;11.350;2023-06-22T04:25:21;22.70;82.80
47779;DHT22;33538;48.432;11.350;2023-06-22T04:27:48;22.60;83.30
47779;DHT22;33538;48.432;11.350;2023-06-22T04:30:15;22.60;83.20
47779;DHT22;33538;48.432;11.350;2023-06-22T04:32:42;22.50;84.40
47779;DHT22;33538;48.432;11.350;2023-06-22T04:35:09;22.60;84.30
47779;DHT22;33538;48.432;11.350;2023-06-22T04:37:38;22.60;84.20
47779;DHT22;33538;48.432;11.350;2023-06-22T04:40:06;22.40;85.20
47779;DHT22;33538;48.432;11.350;2023-06-22T04:42:34;22.40;85.70
47779;DHT22;33538;48.432;11.350;2023-06-22T04:45:01;22.40;86.00
47779;DHT22;33538;48.432;11.350;2023-06-22T04:47:28;22.40;86.30
47779;DHT22;33538;48.432;11.350;2023-06-22T04:49:55;22.40;86.40
47779;DHT22;33538;48.432;11.350;2023-06-22T04:52:22;22.40;86.40
47779;DHT22;33538;48.432;11.350;2023-06-22T04:54:50;22.40;86.20
47779;DHT22;33538;48.432;11.350;2023-06-22T04:57:17;22.40;87.50
47779;DHT22;33538;48.432;11.350;2023-06-22T04:59:43;22.40;88.50
47779;DHT22;33538;48.432;11.350;2023-06-22T05:02:10;22.40;88.00
47779;DHT22;33538;48.432;11.350;2023-06-22T05:04:37;22.30;88.90
47779;DHT22;33538;48.432;11.350;2023-06-22T05:07:04;22.30;89.30
47779;DHT22;33538;48.432;11.350;2023-06-22T05:09:31;22.40;89.80
47779;DHT22;33538;48.432;11.350;2023-06-22T05:11:59;22.40;89.90
47779;DHT22;33538;48.432;11.350;2023-06-22T05:14:26;22.40;89.90
47779;DHT22;33538;48.432;11.350;2023-06-22T05:16:53;22.40;90.50
47779;DHT22;33538;48.432;11.350;2023-06-22T05:19:20;22.40;90.30
47779;DHT22;33538;48.432;11.350;2023-06-22T05:21:47;22.50;89.70
47779;DHT22;33538;48.432;11.350;2023-06-22T05:24:13;22.50;89.60
47779;DHT22;33538;48.432;11.350;2023-06-22T05:26:40;22.50;90.10
47779;DHT22;33538;48.432;11.350;2023-06-22T05:29:08;22.50;89.80
47779;DHT22;33538;48.432;11.350;2023-06-22T05:31:35;22.60;90.00
47779;DHT22;33538;48.432;11.350;2023-06-22T05:34:02;22.50;90.50
47779;DHT22;33538;48.432;11.350;2023-06-22T05:36:29;22.50;90.80
47779;DHT22;33538;48.432;11.350;2023-06-22T05:38:56;22.60;90.90
47779;DHT22;33538;48.432;11.350;2023-06-22T05:41:23;22.60;90.50
47779;DHT22;33538;48.432;11.350;2023-06-22T05:43:50;22.70;90.00
47779;DHT22;33538;48.432;11.350;2023-06-22T05:46:19;22.70;89.90
47779;DHT22;33538;48.432;11.350;2023-06-22T05:48:46;22.70;89.80
47779;DHT22;33538;48.432;11.350;2023-06-22T05:51:13;22.70;89.70
47779;DHT22;33538;48.432;11.350;2023-06-22T05:53:40;22.80;89.40
47779;DHT22;33538;48.432;11.350;2023-06-22T05:56:07;22.80;88.80
47779;DHT22;33538;48.432;11.350;2023-06-22T05:58:34;22.80;88.20
47779;DHT22;33538;48.432;11.350;2023-06-22T06:01:01;22.90;88.30
47779;DHT22;33538;48.432;11.350;2023-06-22T06:03:29;22.90;87.90
47779;DHT22;33538;48.432;11.350;2023-06-22T06:05:56;22.90;87.80
47779;DHT22;33538;48.432;11.350;2023-06-22T06:08:23;22.90;87.20
47779;DHT22;33538;48.432;11.350;2023-06-22T06:10:50;23.00;86.60
47779;DHT22;33538;48.432;11.350;2023-06-22T06:13:17;23.00;86.40
47779;DHT22;33538;48.432;11.350;2023-06-22T06:15:44;23.00;86.30
47779;DHT22;33538;48.432;11.350;2023-06-22T06:18:11;23.00;85.70
47779;DHT22;33538;48.432;11.350;2023-06-22T06:20:39;23.00;85.30
47779;DHT22;33538;48.432;11.350;2023-06-22T06:23:06;23.10;84.90
47779;DHT22;33538;48.432;11.350;2023-06-22T06:25:33;23.10;84.70
47779;DHT22;33538;48.432;11.350;2023-06-22T06:27:59;23.10;85.30
47779;DHT22;33538;48.432;11.350;2023-06-22T06:30:26;23.10;84.50
47779;DHT22;33538;48.432;11.350;2023-06-22T06:32:53;23.10;84.20
47779;DHT22;33538;48.432;11.350;2023-06-22T06:35:20;23.10;84.10
47779;DHT22;33538;48.432;11.350;2023-06-22T06:37:50;23.20;83.70
47779;DHT22;33538;48.432;11.350;2023-06-22T06:40:18;23.20;83.30
47779;DHT22;33538;48.432;11.350;2023-06-22T06:42:46;23.20;83.10
47779;DHT22;33538;48.432;11.350;2023-06-22T06:45:16;23.20;83.30
47779;DHT22;33538;48.432;11.350;2023-06-22T06:47:43;23.20;82.90
47779;DHT22;33538;48.432;11.350;2023-06-22T06:50:11;23.20;83.60
47779;DHT22;33538;48.432;11.350;2023-06-22T06:52:38;23.20;82.60
47779;DHT22;33538;48.432;11.350;2023-06-22T06:55:08;23.30;82.50
47779;DHT22;33538;48.432;11.350;2023-06-22T06:57:35;23.30;82.30
47779;DHT22;33538;48.432;11.350;2023-06-22T07:00:02;23.30;82.10
47779;DHT22;33538;48.432;11.350;2023-06-22T07:02:29;23.30;82.10
47779;DHT22;33538;48.432;11.350;2023-06-22T07:04:56;23.30;81.80
47779;DHT22;33538;48.432;11.350;2023-06-22T07:07:24;23.40;81.80
47779;DHT22;33538;48.432;11.350;2023-06-22T07:09:51;23.40;81.80
47779;DHT22;33538;48.432;11.350;2023-06-22T07:12:19;23.40;81.90
47779;DHT22;33538;48.432;11.350;2023-06-22T07:14:46;23.40;81.70
47779;DHT22;33538;48.432;11.350;2023-06-22T07:17:12;23.40;81.00
47779;DHT22;33538;48.432;11.350;2023-06-22T07:19:39;23.50;80.70
47779;DHT22;33538;48.432;11.350;2023-06-22T07:22:06;23.50;80.70
47779;DHT22;33538;48.432;11.350;2023-06-22T07:24:33;23.50;80.50
47779;DHT22;33538;48.432;11.350;2023-06-22T07:27:00;23.50;80.50
47779;DHT22;33538;48.432;11.350;2023-06-22T07:29:28;23.50;80.30
47779;DHT22;33538;48.432;11.350;2023-06-22T07:31:55;23.60;80.20
47779;DHT22;33538;48.432;11.350;2023-06-22T07:34:22;23.60;80.10
47779;DHT22;33538;48.432;11.350;2023-06-22T07:36:49;23.60;80.10
47779;DHT22;33538;48.432;11.350;2023-06-22T07:39:16;23.60;80.20
47779;DHT22;33538;48.432;11.350;2023-06-22T07:41:42;23.60;80.10
47779;DHT22;33538;48.432;11.350;2023-06-22T07:44:09;23.70;80.20
47779;DHT22;33538;48.432;11.350;2023-06-22T07:46:37;23.70;80.20
47779;DHT22;33538;48.432;11.350;2023-06-22T07:49:04;23.70;80.10
47779;DHT22;33538;48.432;11.350;2023-06-22T07:51:31;23.70;80.30
47779;DHT22;33538;48.432;11.350;2023-06-22T07:53:58;23.80;80.30
47779;DHT22;33538;48.432;11.350;2023-06-22T07:56:24;23.80;80.30
47779;DHT22;33538;48.432;11.350;2023-06-22T07:58:51;23.80;80.30
47779;DHT22;33538;48.432;11.350;2023-06-22T08:01:18;23.80;80.40
47779;DHT22;33538;48.432;11.350;2023-06-22T08:03:47;23.80;80.30
47779;DHT22;33538;48.432;11.350;2023-06-22T08:06:14;23.80;80.40
47779;DHT22;33538;48.432;11.350;2023-06-22T08:08:41;23.90;80.50
47779;DHT22;33538;48.432;11.350;2023-06-22T08:11:07;23.90;80.50
47779;DHT22;33538;48.432;11.350;2023-06-22T08:13:34;23.90;80.40
47779;DHT22;33538;48.432;11.350;2023-06-22T08:16:01;23.90;80.60
47779;DHT22;33538;48.432;11.350;2023-06-22T08:18:28;23.90;80.50
47779;DHT22;33538;48.432;11.350;2023-06-22T08:20:56;24.00;80.50
47779;DHT22;33538;48.432;11.350;2023-06-22T08:23:23;24.00;80.50
47779;DHT22;33538;48.432;11.350;2023-06-22T08:25:50;24.00;80.60
47779;DHT22;33538;48.432;11.350;2023-06-22T08:28:16;24.00;81.60
47779;DHT22;33538;48.432;11.350;2023-06-22T08:30:44;24.00;80.60
47779;DHT22;33538;48.432;11.350;2023-06-22T08:33:11;24.00;80.60
47779;DHT22;33538;48.432;11.350;2023-06-22T08:35:45;24.10;80.70
47779;DHT22;33538;48.432;11.350;2023-06-22T08:38:13;24.10;80.70
47779;DHT22;33538;48.432;11.350;2023-06-22T08:40:40;24.10;80.70
47779;DHT22;33538;48.432;11.350;2023-06-22T08:43:07;24.20;81.00
47779;DHT22;33538;48.432;11.350;2023-06-22T08:45:34;24.20;81.00
47779;DHT22;33538;48.432;11.350;2023-06-22T08:48:01;24.20;81.00
47779;DHT22;33538;48.432;11.350;2023-06-22T08:50:28;24.20;81.90
47779;DHT22;33538;48.432;11.350;2023-06-22T08:52:55;24.20;81.00
47779;DHT22;33538;48.432;11.350;2023-06-22T08:55:26;24.30;81.20
47779;DHT22;33538;48.432;11.350;2023-06-22T08:57:53;24.30;81.30
47779;DHT22;33538;48.432;11.350;2023-06-22T09:00:20;24.30;81.30
47779;DHT22;33538;48.432;11.350;2023-06-22T09:02:47;24.30;81.30
47779;DHT22;33538;48.432;11.350;2023-06-22T09:05:15;24.30;81.30
47779;DHT22;33538;48.432;11.350;2023-06-22T09:07:42;24.40;81.40
47779;DHT22;33538;48.432;11.350;2023-06-22T09:10:09;24.40;81.40
47779;DHT22;33538;48.432;11.350;2023-06-22T09:12:38;24.40;81.50
47779;DHT22;33538;48.432;11.350;2023-06-22T09:15:06;24.40;81.50
47779;DHT22;33538;48.432;11.350;2023-06-22T09:17:37;24.40;81.60
47779;DHT22;33538;48.432;11.350;2023-06-22T09:20:05;24.40;81.70
47779;DHT22;33538;48.432;11.350;2023-06-22T09:22:33;24.50;81.70
47779;DHT22;33538;48.432;11.350;2023-06-22T09:25:00;24.50;81.70
47779;DHT22;33538;48.432;11.350;2023-06-22T09:27:31;24.50;81.80
47779;DHT22;33538;48.432;11.350;2023-06-22T09:30:00;24.60;82.00
47779;DHT22;33538;48.432;11.350;2023-06-22T09:32:26;24.60;82.00
47779;DHT22;33538;48.432;11.350;2023-06-22T09:34:53;24.60;82.00
47779;DHT22;33538;48.432;11.350;2023-06-22T09:37:20;24.60;82.00
47779;DHT22;33538;48.432;11.350;2023-06-22T09:39:47;24.60;82.10
47779;DHT22;33538;48.432;11.350;2023-06-22T09:42:13;24.70;82.20
47779;DHT22;33538;48.432;11.350;2023-06-22T09:44:40;24.70;82.10
47779;DHT22;33538;48.432;11.350;2023-06-22T09:47:08;24.70;82.30
47779;DHT22;33538;48.432;11.350;2023-06-22T09:49:35;24.70;82.30
47779;DHT22;33538;48.432;11.350;2023-06-22T09:52:06;24.80;82.40
47779;DHT22;33538;48.432;11.350;2023-06-22T09:54:33;24.80;82.50
47779;DHT22;33538;48.432;11.350;2023-06-22T09:57:00;24.80;82.10
47779;DHT22;33538;48.432;11.350;2023-06-22T09:59:26;24.80;82.30
47779;DHT22;33538;48.432;11.350;2023-06-22T10:01:53;24.80;82.50
47779;DHT22;33538;48.432;11.350;2023-06-22T10:04:21;24.90;82.60
47779;DHT22;33538;48.432;11.350;2023-06-22T10:06:48;24.90;82.60
47779;DHT22;33538;48.432;11.350;2023-06-22T10:09:15;24.90;82.50
47779;DHT22;33538;48.432;11.350;2023-06-22T10:11:42;24.90;82.60
47779;DHT22;33538;48.432;11.350;2023-06-22T10:14:09;25.00;82.70
47779;DHT22;33538;48.432;11.350;2023-06-22T10:16:36;25.00;82.00
47779;DHT22;33538;48.432;11.350;2023-06-22T10:19:03;25.00;82.00
47779;DHT22;33538;48.432;11.350;2023-06-22T10:21:31;25.00;82.40
47779;DHT22;33538;48.432;11.350;2023-06-22T10:23:58;25.10;82.20
47779;DHT22;33538;48.432;11.350;2023-06-22T10:26:25;25.00;82.40
47779;DHT22;33538;48.432;11.350;2023-06-22T10:28:52;25.00;82.60
47779;DHT22;33538;48.432;11.350;2023-06-22T10:31:38;25.10;82.80
47779;DHT22;33538;48.432;11.350;2023-06-22T10:34:05;25.10;82.70
47779;DHT22;33538;48.432;11.350;2023-06-22T10:36:33;25.10;82.70
47779;DHT22;33538;48.432;11.350;2023-06-22T10:39:00;25.10;82.80
47779;DHT22;33538;48.432;11.350;2023-06-22T10:41:27;25.10;82.80
47779;DHT22;33538;48.432;11.350;2023-06-22T10:43:54;25.20;82.90
47779;DHT22;33538;48.432;11.350;2023-06-22T10:46:20;25.30;82.60
47779;DHT22;33538;48.432;11.350;2023-06-22T10:48:47;25.20;82.70
47779;DHT22;33538;48.432;11.350;2023-06-22T10:51:14;25.30;82.80
47779;DHT22;33538;48.432;11.350;2023-06-22T10:53:42;25.30;82.90
47779;DHT22;33538;48.432;11.350;2023-06-22T10:56:09;25.30;83.10
47779;DHT22;33538;48.432;11.350;2023-06-22T10:58:36;25.30;83.00
47779;DHT22;33538;48.432;11.350;2023-06-22T11:01:03;25.30;83.10
47779;DHT22;33538;48.432;11.350;2023-06-22T11:03:29;25.30;83.30
47779;DHT22;33538;48.432;11.350;2023-06-22T11:05:56;25.30;83.30
47779;DHT22;33538;48.432;11.350;2023-06-22T11:08:23;25.30;83.40
47779;DHT22;33538;48.432;11.350;2023-06-22T11:10:52;25.40;83.50
47779;DHT22;33538;48.432;11.350;2023-06-22T11:13:19;25.40;83.60
47779;DHT22;33538;48.432;11.350;2023-06-22T11:15:45;25.50;83.40
47779;DHT22;33538;48.432;11.350;2023-06-22T11:18:12;25.50;83.50
47779;DHT22;33538;48.432;11.350;2023-06-22T11:20:39;25.50;83.50
47779;DHT22;33538;48.432;11.350;2023-06-22T11:23:06;25.50;83.50
47779;DHT22;33538;48.432;11.350;2023-06-22T11:25:33;25.50;83.50
47779;DHT22;33538;48.432;11.350;2023-06-22T11:28:01;25.50;83.50
47779;DHT22;33538;48.432;11.350;2023-06-22T11:30:28;25.50;83.40
47779;DHT22;33538;48.432;11.350;2023-06-22T11:32:56;25.60;83.50
47779;DHT22;33538;48.432;11.350;2023-06-22T11:35:23;25.60;83.40
47779;DHT22;33538;48.432;11.350;2023-06-22T11:37:50;25.60;83.40
47779;DHT22;33538;48.432;11.350;2023-06-22T11:40:17;25.60;83.40
47779;DHT22;33538;48.432;11.350;2023-06-22T11:42:44;25.70;83.50
47779;DHT22;33538;48.432;11.350;2023-06-22T11:45:12;25.70;83.30
47779;DHT22;33538;48.432;11.350;2023-06-22T11:47:39;25.70;83.20
47779;DHT22;33538;48.432;11.350;2023-06-22T11:50:07;25.70;83.20
47779;DHT22;33538;48.432;11.350;2023-06-22T11:52:34;25.80;83.30
47779;DHT22;33538;48.432;11.350;2023-06-22T11:55:01;25.80;83.30
47779;DHT22;33538;48.432;11.350;2023-06-22T11:57:27;25.80;83.20
47779;DHT22;33538;48.432;11.350;2023-06-22T11:59:54;25.80;83.20
47779;DHT22;33538;48.432;11.350;2023-06-22T12:02:22;25.80;83.30
47779;DHT22;33538;48.432;11.350;2023-06-22T12:04:49;25.80;83.20
47779;DHT22;33538;48.432;11.350;2023-06-22T12:07:16;25.90;83.30
47779;DHT22;33538;48.432;11.350;2023-06-22T12:09:43;26.00;82.00
47779;DHT22;33538;48.432;11.350;2023-06-22T12:12:10;26.00;82.40
47779;DHT22;33538;48.432;11.350;2023-06-22T12:14:37;26.10;81.30
47779;DHT22;33538;48.432;11.350;2023-06-22T12:17:04;26.00;81.70
47779;DHT22;33538;48.432;11.350;2023-06-22T12:19:32;26.00;81.90
47779;DHT22;33538;48.432;11.350;2023-06-22T12:21:59;26.00;82.00
47779;DHT22;33538;48.432;11.350;2023-06-22T12:24:25;26.10;82.00
47779;DHT22;33538;48.432;11.350;2023-06-22T12:26:52;26.10;82.00
47779;DHT22;33538;48.432;11.350;2023-06-22T12:29:22;26.10;82.10
47779;DHT22;33538;48.432;11.350;2023-06-22T12:31:48;26.10;82.20
47779;DHT22;33538;48.432;11.350;2023-06-22T12:34:16;26.10;82.20
47779;DHT22;33538;48.432;11.350;2023-06-22T12:36:44;26.10;82.30
47779;DHT22;33538;48.432;11.350;2023-06-22T12:39:11;26.10;82.40
47779;DHT22;33538;48.432;11.350;2023-06-22T12:41:38;26.10;82.40
47779;DHT22;33538;48.432;11.350;2023-06-22T12:44:05;26.10;82.40
47779;DHT22;33538;48.432;11.350;2023-06-22T12:46:32;26.20;82.50
47779;DHT22;33538;48.432;11.350;2023-06-22T12:48:59;26.20;82.50
47779;DHT22;33538;48.432;11.350;2023-06-22T12:51:26;26.20;82.60
47779;DHT22;33538;48.432;11.350;2023-06-22T12:53:54;26.20;82.60
47779;DHT22;33538;48.432;11.350;2023-06-22T12:56:22;26.20;82.70
47779;DHT22;33538;48.432;11.350;2023-06-22T12:58:49;26.20;82.80
47779;DHT22;33538;48.432;11.350;2023-06-22T13:01:16;26.30;82.90
47779;DHT22;33538;48.432;11.350;2023-06-22T13:03:43;26.30;82.90
47779;DHT22;33538;48.432;11.350;2023-06-22T13:06:10;26.30;82.90
47779;DHT22;33538;48.432;11.350;2023-06-22T13:08:37;26.30;82.90
47779;DHT22;33538;48.432;11.350;2023-06-22T13:11:25;26.30;83.00
47779;DHT22;33538;48.432;11.350;2023-06-22T13:13:52;26.40;82.90
47779;DHT22;33538;48.432;11.350;2023-06-22T13:16:19;26.40;82.90
47779;DHT22;33538;48.432;11.350;2023-06-22T13:18:46;26.40;82.70
47779;DHT22;33538;48.432;11.350;2023-06-22T13:21:13;26.40;82.60
47779;DHT22;33538;48.432;11.350;2023-06-22T13:23:40;26.40;82.60
47779;DHT22;33538;48.432;11.350;2023-06-22T13:26:07;26.40;82.50
47779;DHT22;33538;48.432;11.350;2023-06-22T13:28:35;26.50;82.60
47779;DHT22;33538;48.432;11.350;2023-06-22T13:31:02;26.50;82.60
47779;DHT22;33538;48.432;11.350;2023-06-22T13:33:29;26.50;82.50
47779;DHT22;33538;48.432;11.350;2023-06-22T13:35:56;26.50;82.40
47779;DHT22;33538;48.432;11.350;2023-06-22T13:38:23;26.60;82.40
47779;DHT22;33538;48.432;11.350;2023-06-22T13:40:50;26.60;82.40
47779;DHT22;33538;48.432;11.350;2023-06-22T13:43:17;26.60;82.30
47779;DHT22;33538;48.432;11.350;2023-06-22T13:45:45;26.60;82.30
47779;DHT22;33538;48.432;11.350;2023-06-22T13:48:12;26.70;82.30
47779;DHT22;33538;48.432;11.350;2023-06-22T13:50:38;26.70;82.30
47779;DHT22;33538;48.432;11.350;2023-06-22T13:53:05;26.70;82.20
47779;DHT22;33538;48.432;11.350;2023-06-22T13:55:32;26.70;82.20
47779;DHT22;33538;48.432;11.350;2023-06-22T13:57:59;26.70;82.10
47779;DHT22;33538;48.432;11.350;2023-06-22T14:00:25;26.80;82.20
47779;DHT22;33538;48.432;11.350;2023-06-22T14:02:54;26.80;82.20
47779;DHT22;33538;48.432;11.350;2023-06-22T14:05:21;26.80;82.10
47779;DHT22;33538;48.432;11.350;2023-06-22T14:07:48;26.90;82.10
47779;DHT22;33538;48.432;11.350;2023-06-22T14:10:15;26.90;82.00
47779;DHT22;33538;48.432;11.350;2023-06-22T14:12:42;26.90;81.90
47779;DHT22;33538;48.432;11.350;2023-06-22T14:15:09;26.90;81.90
47779;DHT22;33538;48.432;11.350;2023-06-22T14:17:36;26.90;81.80
47779;DHT22;33538;48.432;11.350;2023-06-22T14:20:05;27.00;81.70
47779;DHT22;33538;48.432;11.350;2023-06-22T14:22:32;27.00;81.60
47779;DHT22;33538;48.432;11.350;2023-06-22T14:24:59;27.00;81.40
47779;DHT22;33538;48.432;11.350;2023-06-22T14:27:26;27.10;81.40
47779;DHT22;33538;48.432;11.350;2023-06-22T14:29:53;27.10;81.20
47779;DHT22;33538;48.432;11.350;2023-06-22T14:32:20;27.10;81.20
47779;DHT22;33538;48.432;11.350;2023-06-22T14:34:47;27.10;81.00
47779;DHT22;33538;48.432;11.350;2023-06-22T14:37:15;27.20;81.00
47779;DHT22;33538;48.432;11.350;2023-06-22T14:39:42;27.20;81.00
47779;DHT22;33538;48.432;11.350;2023-06-22T14:42:09;27.20;80.90
47779;DHT22;33538;48.432;11.350;2023-06-22T14:44:36;27.20;80.80
47779;DHT22;33538;48.432;11.350;2023-06-22T14:47:03;27.30;80.80
47779;DHT22;33538;48.432;11.350;2023-06-22T14:49:30;27.30;80.80
47779;DHT22;33538;48.432;11.350;2023-06-22T14:51:57;27.40;80.80
47779;DHT22;33538;48.432;11.350;2023-06-22T14:54:25;27.30;80.50
47779;DHT22;33538;48.432;11.350;2023-06-22T14:56:52;27.40;80.50
47779;DHT22;33538;48.432;11.350;2023-06-22T14:59:18;27.40;80.30
47779;DHT22;33538;48.432;11.350;2023-06-22T15:01:45;27.40;80.20
47779;DHT22;33538;48.432;11.350;2023-06-22T15:04:14;27.40;80.10
47779;DHT22;33538;48.432;11.350;2023-06-22T15:06:40;27.50;80.10
47779;DHT22;33538;48.432;11.350;2023-06-22T15:09:07;27.50;79.90
47779;DHT22;33538;48.432;11.350;2023-06-22T15:11:35;27.50;79.70
47779;DHT22;33538;48.432;11.350;2023-06-22T15:14:02;27.60;79.60
47779;DHT22;33538;48.432;11.350;2023-06-22T15:16:29;27.60;79.50